Time;durP1;ratioP1;P1;durP2;ratioP2;P2;SDS_P1;SDS_P2;PMS_P1;PMS_P2;Temp;Humidity;BMP_temperature;BMP_pressure;BME280_temperature;BME280_humidity;BME280_pressure;Samples;Min_cycle;Max_cycle;Signal;HPM_P1;HPM_P2
2024/03/19 00:00:12;;;;;;;11.88;5.13;;;;;;;2.62;100.00;101417.72;5080602;28;20896;-90
2024/03/19 00:02:40;;;;;;;10.33;5.43;;;;;;;2.68;100.00;101427.66;5092511;28;21139;-88
2024/03/19 00:05:08;;;;;;;9.43;5.20;;;;;;;2.69;100.00;101432.00;5108031;28;20420;-89
2024/03/19 00:07:35;;;;;;;9.93;5.47;;;;;;;2.66;100.00;101426.19;5098666;28;20416;-89
2024/03/19 00:10:03;;;;;;;10.15;5.38;;;;;;;2.68;100.00;101440.25;5109753;28;20416;-90
2024/03/19 00:12:32;;;;;;;11.93;5.53;;;;;;;2.62;100.00;101424.97;5104818;28;20422;-89
2024/03/19 00:15:01;;;;;;;11.85;5.40;;;;;;;2.54;100.00;101420.63;5097888;28;20417;-89
2024/03/19 00:17:29;;;;;;;10.03;5.07;;;;;;;2.55;100.00;101431.19;5089822;28;20425;-89
2024/03/19 00:19:58;;;;;;;8.82;5.22;;;;;;;2.52;100.00;101418.16;5087283;28;20416;-88
2024/03/19 00:22:25;;;;;;;9.60;5.45;;;;;;;2.51;100.00;101421.03;5088386;28;20429;-89
2024/03/19 00:24:53;;;;;;;10.70;5.20;;;;;;;2.49;100.00;101417.75;5079765;28;20457;-89
2024/03/19 00:27:20;;;;;;;10.10;5.28;;;;;;;2.47;100.00;101404.53;5092297;28;20416;-89
2024/03/19 00:29:48;;;;;;;11.00;5.50;;;;;;;2.50;100.00;101414.84;5108959;28;20443;-88
2024/03/19 00:32:17;;;;;;;10.03;5.43;;;;;;;2.45;100.00;101408.44;5102035;28;20408;-89
2024/03/19 00:34:44;;;;;;;11.45;5.50;;;;;;;2.36;100.00;101399.75;5088730;28;20413;-89
2024/03/19 00:37:12;;;;;;;10.95;5.63;;;;;;;2.40;100.00;101405.56;5107733;28;20435;-89
2024/03/19 00:39:40;;;;;;;10.27;5.25;;;;;;;2.47;100.00;101411.75;5105684;28;20900;-89
2024/03/19 00:42:07;;;;;;;9.82;5.00;;;;;;;2.35;100.00;101406.19;5110313;28;20776;-89
2024/03/19 00:44:35;;;;;;;9.25;5.07;;;;;;;2.32;100.00;101403.88;5104963;28;20768;-89
2024/03/19 00:47:03;;;;;;;9.52;5.32;;;;;;;2.36;100.00;101405.13;5106372;28;20408;-89
2024/03/19 00:49:31;;;;;;;9.43;5.10;;;;;;;2.35;100.00;101407.00;5091735;28;20427;-88
2024/03/19 00:51:59;;;;;;;10.50;5.10;;;;;;;2.27;100.00;101398.34;5081992;28;20434;-89
2024/03/19 00:54:27;;;;;;;9.93;5.47;;;;;;;2.28;100.00;101410.72;5101464;28;20398;-89
2024/03/19 00:56:54;;;;;;;10.27;5.40;;;;;;;2.21;100.00;101405.38;5084463;28;20416;-89
2024/03/19 00:59:22;;;;;;;10.60;5.15;;;;;;;2.21;100.00;101408.03;5091066;28;20428;-89
2024/03/19 01:01:49;;;;;;;9.75;5.00;;;;;;;2.20;100.00;101412.56;5081288;28;20776;-88
2024/03/19 01:04:17;;;;;;;9.07;5.15;;;;;;;2.12;100.00;101401.22;5088626;28;20419;-89
2024/03/19 01:06:46;;;;;;;9.37;4.83;;;;;;;2.14;100.00;101396.44;5087543;28;20463;-89
2024/03/19 01:09:14;;;;;;;9.18;5.03;;;;;;;2.14;100.00;101404.50;5101006;28;20410;-89
2024/03/19 01:11:43;;;;;;;8.25;4.80;;;;;;;2.13;100.00;101403.69;5108267;28;20411;-89
2024/03/19 01:14:11;;;;;;;8.73;4.75;;;;;;;2.05;100.00;101401.22;5095161;28;20410;-88
2024/03/19 01:16:38;;;;;;;10.15;5.03;;;;;;;2.06;100.00;101404.72;5107416;28;20409;-90
2024/03/19 01:19:06;;;;;;;11.65;5.07;;;;;;;2.05;100.00;101414.63;5097463;28;20416;-89
2024/03/19 01:21:34;;;;;;;9.25;5.13;;;;;;;2.11;100.00;101416.47;5105437;28;20415;-89
2024/03/19 01:24:02;;;;;;;8.48;4.55;;;;;;;2.11;100.00;101411.13;5090030;28;20408;-90
2024/03/19 01:26:30;;;;;;;8.82;5.05;;;;;;;2.06;100.00;101405.56;5091442;28;20413;-89
2024/03/19 01:28:58;;;;;;;9.27;4.80;;;;;;;2.01;100.00;101408.00;5091504;28;20423;-89
2024/03/19 01:31:28;;;;;;;10.77;4.90;;;;;;;1.99;100.00;101412.75;5087439;28;20424;-90
2024/03/19 01:33:56;;;;;;;9.48;4.80;;;;;;;1.97;100.00;101418.31;5105164;28;20424;-89
2024/03/19 01:36:24;;;;;;;9.30;4.57;;;;;;;1.93;100.00;101416.25;5092214;28;20505;-88
2024/03/19 01:38:51;;;;;;;9.43;4.78;;;;;;;1.91;100.00;101408.41;5109566;28;20422;-89
2024/03/19 01:41:20;;;;;;;10.20;5.13;;;;;;;1.85;100.00;101407.38;5111077;28;20411;-90
2024/03/19 01:43:48;;;;;;;9.93;4.63;;;;;;;1.86;100.00;101410.88;5095029;28;20447;-89
2024/03/19 01:46:26;;;;;;;8.90;4.70;;;;;;;1.85;100.00;101417.28;5090880;28;20414;-89
2024/03/19 01:48:54;;;;;;;8.38;4.80;;;;;;;1.79;100.00;101408.19;5087591;28;20416;-90
2024/03/19 01:51:24;;;;;;;8.65;4.63;;;;;;;1.75;100.00;101406.94;5109542;28;20415;-89
2024/03/19 01:53:54;;;;;;;8.57;4.50;;;;;;;1.77;100.00;101418.31;5107797;28;20782;-89
2024/03/19 01:56:23;;;;;;;8.65;4.65;;;;;;;1.83;100.00;101422.84;5092024;28;20770;-90
2024/03/19 01:58:51;;;;;;;8.85;4.45;;;;;;;1.79;100.00;101415.41;5090505;28;20927;-89
2024/03/19 02:01:18;;;;;;;8.25;4.70;;;;;;;1.74;100.00;101410.66;5090675;28;20420;-88
2024/03/19 02:03:46;;;;;;;9.90;4.23;;;;;;;1.69;100.00;101400.53;5093170;28;20439;-89
2024/03/19 02:06:15;;;;;;;10.48;4.60;;;;;;;1.65;100.00;101415.38;5103209;28;20419;-89
2024/03/19 02:08:58;;;;;;;8.27;4.20;;;;;;;1.68;100.00;101403.41;5089056;28;20424;-89
2024/03/19 02:11:26;;;;;;;8.65;4.30;;;;;;;1.57;100.00;101404.81;5088100;28;20404;-90
2024/03/19 02:13:54;;;;;;;9.50;4.70;;;;;;;1.50;100.00;101398.63;5103168;28;20404;-90
2024/03/19 02:16:22;;;;;;;10.18;4.47;;;;;;;1.46;100.00;101403.53;5107940;28;20423;-90
2024/03/19 02:18:56;;;;;;;10.48;4.47;;;;;;;1.46;100.00;101408.09;5092076;28;20767;-89
2024/03/19 02:21:25;;;;;;;9.27;4.80;;;;;;;1.43;100.00;101401.28;5102633;28;20436;-89
2024/03/19 02:23:56;;;;;;;8.73;4.22;;;;;;;1.36;100.00;101398.56;5096939;28;20425;-89
2024/03/19 02:26:26;;;;;;;7.93;4.00;;;;;;;1.37;100.00;101391.38;5082545;28;20423;-89
2024/03/19 02:28:54;;;;;;;9.02;4.60;;;;;;;1.30;100.00;101393.19;5104584;28;20413;-89
2024/03/19 02:31:24;;;;;;;7.88;4.32;;;;;;;1.21;100.00;101395.22;5099259;28;20421;-89
2024/03/19 02:33:52;;;;;;;9.70;4.30;;;;;;;1.22;100.00;101388.81;5108111;28;20421;-89
2024/03/19 02:36:19;;;;;;;9.35;4.60;;;;;;;1.27;100.00;101390.91;5103356;27;21054;-88
2024/03/19 02:38:47;;;;;;;7.68;4.20;;;;;;;1.18;100.00;101387.56;5103630;28;20422;-90
2024/03/19 02:41:16;;;;;;;9.15;4.50;;;;;;;1.16;100.00;101385.09;5089967;28;20486;-89
2024/03/19 02:43:44;;;;;;;8.30;4.60;;;;;;;1.10;100.00;101377.84;5103835;28;21003;-89
2024/03/19 02:46:11;;;;;;;10.17;4.53;;;;;;;1.05;100.00;101383.00;5107606;28;20413;-89
2024/03/19 02:48:39;;;;;;;9.45;4.82;;;;;;;1.12;100.00;101388.34;5092098;28;20411;-90
2024/03/19 02:51:06;;;;;;;8.13;4.40;;;;;;;1.11;100.00;101392.09;5098201;28;20411;-89
2024/03/19 02:53:34;;;;;;;8.15;4.30;;;;;;;1.08;100.00;101387.09;5085749;28;20425;-87
2024/03/19 02:56:02;;;;;;;8.65;4.50;;;;;;;1.09;100.00;101388.75;5085015;28;20420;-88
2024/03/19 02:58:31;;;;;;;10.10;4.82;;;;;;;1.03;100.00;101385.03;5099147;28;20422;-89
2024/03/19 03:00:58;;;;;;;10.90;5.00;;;;;;;1.08;100.00;101381.72;5090666;28;20818;-88
2024/03/19 03:03:26;;;;;;;8.65;4.80;;;;;;;0.98;100.00;101388.31;5101212;28;20908;-89
2024/03/19 03:05:53;;;;;;;8.15;4.40;;;;;;;1.00;100.00;101382.75;5093985;28;20421;-89
2024/03/19 03:08:20;;;;;;;9.55;4.47;;;;;;;1.06;100.00;101387.31;5082333;28;20414;-89
2024/03/19 03:10:49;;;;;;;9.40;4.93;;;;;;;1.04;100.00;101377.81;5093717;28;20776;-90
2024/03/19 03:13:16;;;;;;;11.23;4.50;;;;;;;1.09;100.00;101378.03;5102100;28;20889;-89
2024/03/19 03:15:45;;;;;;;9.00;4.32;;;;;;;1.12;100.00;101383.84;5092018;28;20778;-88
2024/03/19 03:18:12;;;;;;;8.50;4.47;;;;;;;1.06;100.00;101367.72;5100053;28;20421;-88
2024/03/19 03:20:40;;;;;;;8.98;4.40;;;;;;;1.13;100.00;101379.28;5089381;28;20420;-89
2024/03/19 03:23:08;;;;;;;10.40;4.50;;;;;;;1.04;100.00;101364.41;5101065;28;20408;-88
2024/03/19 03:25:35;;;;;;;8.00;4.20;;;;;;;1.02;100.00;101367.28;5093854;28;20424;-89
2024/03/19 03:28:03;;;;;;;9.18;4.30;;;;;;;1.01;100.00;101373.69;5083979;28;20425;-89
2024/03/19 03:30:31;;;;;;;9.67;4.40;;;;;;;1.08;100.00;101379.91;5102280;28;20411;-89
2024/03/19 03:32:59;;;;;;;7.68;4.28;;;;;;;1.06;100.00;101383.81;5081928;28;20431;-89
2024/03/19 03:35:27;;;;;;;9.88;4.07;;;;;;;1.10;100.00;101379.69;5105380;28;20433;-89
2024/03/19 03:37:54;;;;;;;7.90;4.10;;;;;;;1.17;100.00;101388.59;5102055;28;20428;-90
2024/03/19 03:40:24;;;;;;;8.75;3.97;;;;;;;1.08;100.00;101381.72;5085672;28;20886;-89
2024/03/19 03:42:51;;;;;;;8.27;4.13;;;;;;;1.08;100.00;101385.25;5095033;28;20415;-89
2024/03/19 03:45:20;;;;;;;7.63;4.18;;;;;;;0.98;100.00;101390.16;5096952;28;20426;-89
2024/03/19 03:47:48;;;;;;;8.55;3.90;;;;;;;0.89;100.00;101383.31;5088071;28;20421;-89
2024/03/19 03:50:17;;;;;;;8.15;4.05;;;;;;;0.81;100.00;101382.44;5085428;28;20426;-89
2024/03/19 03:52:45;;;;;;;8.18;3.95;;;;;;;0.74;100.00;101378.06;5076852;28;20434;-90
2024/03/19 03:55:14;;;;;;;10.10;4.18;;;;;;;0.71;100.00;101376.63;5086721;28;20435;-89
2024/03/19 03:57:41;;;;;;;9.52;4.00;;;;;;;0.64;100.00;101373.06;5107238;27;20774;-89
2024/03/19 04:00:11;;;;;;;8.77;4.30;;;;;;;0.60;100.00;101375.31;5089867;28;20417;-89
2024/03/19 04:02:40;;;;;;;9.05;4.20;;;;;;;0.61;100.00;101376.16;5100051;28;20412;-89
2024/03/19 04:05:09;;;;;;;9.10;4.15;;;;;;;0.50;100.00;101372.97;5089665;28;20412;-89
2024/03/19 04:07:40;;;;;;;7.75;4.07;;;;;;;0.53;100.00;101381.66;5092808;28;20420;-90
2024/03/19 04:10:08;;;;;;;9.98;4.40;;;;;;;0.45;100.00;101378.09;5098869;28;20421;-90
2024/03/19 04:12:36;;;;;;;12.20;5.30;;;;;;;0.41;100.00;101370.66;5098701;28;20410;-89
2024/03/19 04:15:03;;;;;;;9.93;5.15;;;;;;;0.38;100.00;101376.41;5093179;28;20440;-89
2024/03/19 04:17:31;;;;;;;9.23;5.03;;;;;;;0.28;100.00;101371.38;5100565;28;20421;-90
2024/03/19 04:19:59;;;;;;;11.60;5.43;;;;;;;0.27;100.00;101369.72;5086877;28;20912;-90
2024/03/19 04:22:27;;;;;;;11.52;5.55;;;;;;;0.24;100.00;101370.94;5083664;28;20765;-89
2024/03/19 04:24:56;;;;;;;11.43;5.43;;;;;;;0.24;100.00;101380.81;5107196;28;20412;-89
2024/03/19 04:27:23;;;;;;;12.45;5.85;;;;;;;0.16;100.00;101377.25;5092517;28;20420;-89
2024/03/19 04:29:51;;;;;;;10.68;5.70;;;;;;;0.13;100.00;101374.97;5092411;28;20420;-89
2024/03/19 04:32:18;;;;;;;10.93;5.78;;;;;;;0.14;100.00;101376.63;5100179;28;20417;-89
2024/03/19 04:34:46;;;;;;;12.70;5.50;;;;;;;0.17;100.00;101381.59;5102290;28;20429;-89
2024/03/19 04:37:14;;;;;;;10.75;5.32;;;;;;;0.16;100.00;101393.31;5091753;28;20949;-89
2024/03/19 04:39:41;;;;;;;12.35;5.68;;;;;;;0.20;100.00;101392.94;5084034;28;20453;-89
2024/03/19 04:42:16;;;;;;;10.45;5.50;;;;;;;0.26;100.00;101392.16;5089075;28;20426;-89
2024/03/19 04:44:43;;;;;;;11.48;5.68;;;;;;;0.26;100.00;101382.28;5103186;28;20430;-89
2024/03/19 04:47:12;;;;;;;10.70;5.60;;;;;;;0.49;100.00;101386.56;5080944;28;20433;-89
2024/03/19 04:49:39;;;;;;;10.87;5.40;;;;;;;0.40;100.00;101391.25;5082319;28;20441;-89
2024/03/19 04:52:08;;;;;;;12.60;5.60;;;;;;;0.44;100.00;101389.00;5109449;28;20409;-88
2024/03/19 04:54:35;;;;;;;11.48;5.50;;;;;;;0.48;100.00;101393.78;5089340;28;20426;-89
2024/03/19 04:57:03;;;;;;;10.80;5.40;;;;;;;0.52;100.00;101383.50;5100996;28;20420;-90
2024/03/19 04:59:32;;;;;;;11.27;5.60;;;;;;;0.58;100.00;101387.22;5108835;28;20540;-90
2024/03/19 05:01:59;;;;;;;10.93;5.47;;;;;;;0.62;100.00;101389.34;5084202;28;20433;-89
2024/03/19 05:04:27;;;;;;;9.05;5.03;;;;;;;0.56;100.00;101384.75;5080008;28;20459;-88
2024/03/19 05:06:55;;;;;;;12.17;5.20;;;;;;;0.60;100.00;101377.16;5087853;28;20429;-89
2024/03/19 05:09:22;;;;;;;10.77;5.55;;;;;;;0.59;100.00;101378.19;5097667;28;20776;-89
2024/03/19 05:11:49;;;;;;;9.93;5.07;;;;;;;0.56;100.00;101373.22;5092239;28;20447;-89
2024/03/19 05:14:17;;;;;;;10.65;5.25;;;;;;;0.53;100.00;101377.13;5096342;28;20420;-90
2024/03/19 05:16:46;;;;;;;8.60;5.00;;;;;;;0.64;100.00;101373.88;5098442;28;20418;-89
2024/03/19 05:19:13;;;;;;;11.45;5.35;;;;;;;0.62;100.00;101377.78;5091232;28;20764;-88
2024/03/19 05:21:41;;;;;;;8.57;5.00;;;;;;;0.55;100.00;101379.59;5092110;28;20422;-88
2024/03/19 05:24:08;;;;;;;10.73;5.70;;;;;;;0.63;100.00;101374.09;5089409;28;20414;-90
2024/03/19 05:26:36;;;;;;;10.98;5.10;;;;;;;0.59;100.00;101380.88;5089662;28;20420;-89
2024/03/19 05:29:03;;;;;;;10.02;5.30;;;;;;;0.55;100.00;101377.72;5100874;28;20799;-90
2024/03/19 05:31:31;;;;;;;10.50;5.40;;;;;;;0.73;100.00;101382.59;5093556;28;20559;-89
2024/03/19 05:34:00;;;;;;;9.75;4.80;;;;;;;0.65;100.00;101391.63;5110591;28;20420;-88
2024/03/19 05:36:27;;;;;;;10.27;4.95;;;;;;;0.67;100.00;101389.56;5087289;28;20905;-89
2024/03/19 05:38:55;;;;;;;9.43;5.00;;;;;;;0.57;100.00;101390.97;5090659;28;20433;-89
2024/03/19 05:41:22;;;;;;;11.52;5.13;;;;;;;0.53;100.00;101390.50;5106163;28;20405;-89
2024/03/19 05:43:51;;;;;;;10.80;5.07;;;;;;;0.54;100.00;101380.63;5103060;28;20782;-90
2024/03/19 05:46:19;;;;;;;9.70;5.10;;;;;;;0.38;100.00;101384.44;5091895;28;20448;-89
2024/03/19 05:48:46;;;;;;;8.55;4.95;;;;;;;0.35;100.00;101369.56;5110966;27;20421;-89
2024/03/19 05:51:15;;;;;;;8.27;4.68;;;;;;;0.26;100.00;101379.63;5095403;28;20416;-89
2024/03/19 05:53:43;;;;;;;10.20;4.97;;;;;;;0.20;100.00;101380.38;5092878;28;20496;-88
2024/03/19 05:56:10;;;;;;;9.77;5.10;;;;;;;0.11;100.00;101370.81;5095669;28;20424;-90
2024/03/19 05:58:37;;;;;;;9.02;5.03;;;;;;;0.13;100.00;101380.31;5100389;28;20423;-89
2024/03/19 06:01:05;;;;;;;8.65;4.88;;;;;;;0.13;100.00;101382.19;5083243;28;20436;-89
2024/03/19 06:03:33;;;;;;;9.52;4.57;;;;;;;0.10;100.00;101388.75;5085263;28;20436;-90
2024/03/19 06:06:03;;;;;;;10.38;4.95;;;;;;;0.16;100.00;101384.47;5106426;28;20409;-90
2024/03/19 06:08:32;;;;;;;9.68;4.78;;;;;;;0.25;100.00;101393.16;5087527;28;20409;-89
2024/03/19 06:11:00;;;;;;;9.75;4.65;;;;;;;0.36;100.00;101390.00;5091151;28;20746;-89
2024/03/19 06:13:27;;;;;;;8.50;4.53;;;;;;;0.40;100.00;101404.63;5094653;28;20449;-89
2024/03/19 06:15:55;;;;;;;9.48;4.93;;;;;;;0.44;100.00;101416.63;5086394;28;20402;-90
2024/03/19 06:18:23;;;;;;;9.40;4.35;;;;;;;0.46;100.00;101417.25;5091653;28;20420;-91
2024/03/19 06:20:50;;;;;;;9.23;4.57;;;;;;;0.56;100.00;101408.03;5108662;28;20427;-90
2024/03/19 06:23:18;;;;;;;11.05;4.97;;;;;;;0.65;100.00;101409.56;5091198;28;20425;-88
2024/03/19 06:25:47;;;;;;;7.93;4.32;;;;;;;0.75;100.00;101410.03;5088797;28;20424;-91
2024/03/19 06:28:15;;;;;;;10.57;4.63;;;;;;;0.80;100.00;101412.94;5105638;28;20419;-89
2024/03/19 06:30:42;;;;;;;8.30;4.40;;;;;;;0.93;100.00;101414.88;5060006;28;20431;-87
2024/03/19 06:33:09;;;;;;;8.53;4.60;;;;;;;1.03;100.00;101403.78;5068939;28;20798;-87
2024/03/19 06:35:37;;;;;;;8.48;4.30;;;;;;;1.15;100.00;101398.69;5067189;28;20431;-90
2024/03/19 06:38:05;;;;;;;10.35;4.30;;;;;;;1.29;100.00;101407.63;5058377;28;21700;-87
2024/03/19 06:40:32;;;;;;;8.70;4.35;;;;;;;1.27;100.00;101409.66;5063079;28;20424;-89
2024/03/19 06:43:01;;;;;;;9.43;4.50;;;;;;;1.32;100.00;101405.34;5061574;28;20441;-84
2024/03/19 06:45:30;;;;;;;8.57;4.43;;;;;;;1.39;100.00;101415.28;5068337;28;20431;-87
2024/03/19 06:47:58;;;;;;;8.27;4.50;;;;;;;1.39;100.00;101416.13;5059520;28;20439;-89
2024/03/19 06:50:26;;;;;;;12.03;4.80;;;;;;;1.48;100.00;101428.34;5066950;28;20425;-87
2024/03/19 06:52:55;;;;;;;8.88;4.70;;;;;;;1.47;100.00;101420.47;5089468;28;20413;-88
2024/03/19 06:55:22;;;;;;;9.80;4.68;;;;;;;1.44;100.00;101415.53;5062193;28;20974;-87
2024/03/19 06:57:51;;;;;;;9.50;4.50;;;;;;;1.50;100.00;101426.25;5080635;28;20434;-87
2024/03/19 07:00:20;;;;;;;9.18;4.43;;;;;;;1.57;100.00;101428.97;5062643;28;21093;-86
2024/03/19 07:02:49;;;;;;;9.35;4.68;;;;;;;1.65;100.00;101433.34;5078567;28;20449;-87
2024/03/19 07:05:16;;;;;;;10.73;4.45;;;;;;;1.83;100.00;101433.59;5061352;28;20662;-87
2024/03/19 07:07:44;;;;;;;9.90;4.60;;;;;;;2.00;100.00;101442.09;5075159;28;20426;-87
2024/03/19 07:10:12;;;;;;;10.30;4.35;;;;;;;2.31;100.00;101438.00;5059386;28;20435;-88
2024/03/19 07:12:40;;;;;;;9.20;4.50;;;;;;;2.52;100.00;101434.25;5059485;28;20451;-88
2024/03/19 07:15:14;;;;;;;8.77;4.45;;;;;;;2.59;100.00;101428.06;5058333;28;20417;-90
2024/03/19 07:17:49;;;;;;;8.80;4.50;;;;;;;2.58;100.00;101437.16;5060272;28;20425;-89
2024/03/19 07:20:18;;;;;;;9.60;4.53;;;;;;;2.80;100.00;101435.06;5059944;28;20439;-89
2024/03/19 07:22:47;;;;;;;9.10;4.45;;;;;;;2.58;100.00;101437.16;5084166;28;20445;-90
2024/03/19 07:25:15;;;;;;;8.03;4.40;;;;;;;2.49;100.00;101428.50;5060754;28;20802;-87
2024/03/19 07:27:44;;;;;;;11.13;4.50;;;;;;;2.29;100.00;101439.22;5084441;28;20428;-86
2024/03/19 07:30:15;;;;;;;10.93;4.90;;;;;;;2.33;100.00;101438.59;5041615;28;21154;-89
2024/03/19 07:32:45;;;;;;;9.65;4.43;;;;;;;2.38;100.00;101435.31;5030901;28;20436;-85
2024/03/19 07:35:13;;;;;;;8.67;4.30;;;;;;;2.37;100.00;101447.91;5007325;28;20429;-86
2024/03/19 07:37:41;;;;;;;9.30;4.43;;;;;;;2.36;100.00;101443.59;5026408;28;20413;-89
2024/03/19 07:40:10;;;;;;;8.32;4.32;;;;;;;2.45;100.00;101443.38;5013107;28;20438;-89
2024/03/19 07:42:38;;;;;;;7.47;4.35;;;;;;;2.46;100.00;101450.38;5030503;28;20429;-87
2024/03/19 07:45:07;;;;;;;8.32;4.20;;;;;;;2.57;100.00;101448.94;5030974;28;20424;-86
2024/03/19 07:47:35;;;;;;;9.03;4.63;;;;;;;2.44;100.00;101450.59;5030574;28;20429;-90
2024/03/19 07:50:07;;;;;;;7.90;4.25;;;;;;;2.40;100.00;101446.66;5017734;28;20417;-85
2024/03/19 07:52:35;;;;;;;9.48;4.43;;;;;;;2.54;100.00;101455.53;5038086;28;20432;-86
2024/03/19 07:55:04;;;;;;;8.60;4.63;;;;;;;2.70;100.00;101455.13;5034704;28;20421;-87
2024/03/19 07:57:32;;;;;;;7.25;3.97;;;;;;;2.76;100.00;101450.78;5020202;28;20424;-90
2024/03/19 08:00:09;;;;;;;8.40;4.10;;;;;;;2.92;100.00;101457.59;5019714;28;20421;-86
2024/03/19 08:02:39;;;;;;;9.43;4.10;;;;;;;3.03;100.00;101454.25;5041713;28;20418;-88
2024/03/19 08:05:08;;;;;;;9.13;4.57;;;;;;;3.01;100.00;101456.34;5025056;28;20446;-87
2024/03/19 08:07:36;;;;;;;7.72;4.45;;;;;;;3.17;100.00;101454.22;5021300;28;20417;-86
2024/03/19 08:10:04;;;;;;;8.48;4.40;;;;;;;3.35;100.00;101453.56;5019184;28;20413;-89
2024/03/19 08:12:33;;;;;;;10.80;5.03;;;;;;;3.41;100.00;101466.13;5032775;28;20432;-89
2024/03/19 08:15:02;;;;;;;8.35;4.43;;;;;;;3.41;100.00;101460.75;5009460;28;20440;-86
2024/03/19 08:17:32;;;;;;;11.10;4.93;;;;;;;3.49;100.00;101455.13;5015575;28;20421;-89
2024/03/19 08:20:00;;;;;;;8.03;4.27;;;;;;;3.65;100.00;101447.63;5022103;28;20461;-88
2024/03/19 08:22:32;;;;;;;9.43;4.45;;;;;;;3.62;100.00;101453.44;5022422;28;20413;-91
2024/03/19 08:25:01;;;;;;;9.05;4.30;;;;;;;3.95;100.00;101458.66;5015409;28;20444;-89
2024/03/19 08:27:30;;;;;;;8.15;4.18;;;;;;;3.97;100.00;101466.53;5029706;28;20535;-86
2024/03/19 08:29:58;;;;;;;10.10;4.05;;;;;;;4.18;100.00;101468.84;5002041;28;20656;-86
2024/03/19 08:32:25;;;;;;;8.23;4.05;;;;;;;4.07;100.00;101462.31;5037566;28;20407;-86
2024/03/19 08:35:00;;;;;;;9.43;4.30;;;;;;;4.07;100.00;101461.47;5058405;28;20904;-85
2024/03/19 08:37:29;;;;;;;7.97;4.27;;;;;;;4.03;100.00;101460.25;5038486;28;20478;-85
2024/03/19 08:39:58;;;;;;;8.10;4.35;;;;;;;4.07;100.00;101461.47;5038574;28;20427;-87
2024/03/19 08:42:26;;;;;;;7.78;4.30;;;;;;;4.07;100.00;101458.78;5055226;28;20427;-84
2024/03/19 08:44:53;;;;;;;9.23;4.13;;;;;;;4.17;100.00;101461.00;5027060;28;20411;-87
2024/03/19 08:47:21;;;;;;;8.13;4.20;;;;;;;4.13;100.00;101463.31;5038153;28;20423;-86
2024/03/19 08:49:49;;;;;;;8.75;4.10;;;;;;;4.09;100.00;101459.41;5057221;28;20420;-87
2024/03/19 08:52:16;;;;;;;8.30;4.60;;;;;;;4.13;100.00;101465.16;5040924;28;20772;-88
2024/03/19 08:54:44;;;;;;;11.10;4.40;;;;;;;4.37;100.00;101469.75;5050770;28;20411;-86
2024/03/19 08:57:13;;;;;;;9.85;4.40;;;;;;;4.36;100.00;101461.91;5036834;28;20482;-87
2024/03/19 08:59:40;;;;;;;8.82;4.40;;;;;;;4.52;100.00;101449.75;5035905;28;20423;-88
2024/03/19 09:02:08;;;;;;;8.05;4.18;;;;;;;4.65;100.00;101462.28;5036650;28;20411;-88
2024/03/19 09:04:36;;;;;;;9.57;4.70;;;;;;;4.82;100.00;101460.69;5038300;28;20427;-86
2024/03/19 09:07:04;;;;;;;8.25;4.45;;;;;;;4.98;100.00;101458.47;5053421;28;20427;-86
2024/03/19 09:09:31;;;;;;;9.17;4.47;;;;;;;5.15;100.00;101456.00;5037890;28;21080;-89
2024/03/19 09:11:59;;;;;;;8.60;4.30;;;;;;;5.32;100.00;101465.16;5050222;28;20430;-87
2024/03/19 09:14:27;;;;;;;9.23;4.50;;;;;;;5.51;100.00;101465.13;5049877;28;20411;-87
2024/03/19 09:16:56;;;;;;;9.15;4.18;;;;;;;5.62;100.00;101467.91;5032344;28;20454;-89
2024/03/19 09:19:25;;;;;;;9.30;4.83;;;;;;;5.50;100.00;101458.91;5055873;28;20419;-86
2024/03/19 09:21:53;;;;;;;9.15;4.38;;;;;;;5.49;100.00;101461.84;5035168;28;20915;-86
2024/03/19 09:24:21;;;;;;;7.97;4.32;;;;;;;5.36;100.00;101452.00;5053457;28;20428;-89
2024/03/19 09:26:48;;;;;;;8.63;4.70;;;;;;;5.39;100.00;101463.19;5031916;28;20432;-86
2024/03/19 09:29:16;;;;;;;10.63;4.50;;;;;;;5.59;100.00;101456.72;5046256;28;20435;-87
2024/03/19 09:31:44;;;;;;;8.32;4.53;;;;;;;5.45;100.00;101454.19;5007180;28;20411;-86
2024/03/19 09:34:12;;;;;;;10.18;4.68;;;;;;;5.57;100.00;101459.66;5037873;28;20432;-87
2024/03/19 09:36:40;;;;;;;8.65;4.70;;;;;;;5.55;100.00;101455.53;5061693;28;21083;-87
2024/03/19 09:39:10;;;;;;;9.00;4.60;;;;;;;5.60;100.00;101448.38;5051318;28;20431;-88
2024/03/19 09:41:42;;;;;;;8.00;4.73;;;;;;;5.47;100.00;101445.03;5042251;28;20466;-88
2024/03/19 09:44:17;;;;;;;9.68;4.93;;;;;;;5.40;100.00;101437.84;5042131;28;20427;-88
2024/03/19 09:46:47;;;;;;;9.18;4.78;;;;;;;5.55;100.00;101450.13;5056361;28;21341;-88
2024/03/19 09:49:18;;;;;;;8.73;4.60;;;;;;;5.59;100.00;101449.47;5020211;28;20432;-88
2024/03/19 09:51:47;;;;;;;8.45;4.53;;;;;;;5.70;100.00;101453.25;5038362;28;20423;-88
2024/03/19 09:54:16;;;;;;;10.82;5.30;;;;;;;5.88;100.00;101438.06;5022757;28;21956;-88
2024/03/19 09:56:46;;;;;;;9.75;4.93;;;;;;;5.95;100.00;101444.19;5053914;28;20441;-89
2024/03/19 09:59:15;;;;;;;8.10;4.80;;;;;;;5.85;100.00;101438.53;5033150;28;20428;-89
2024/03/19 10:01:43;;;;;;;8.55;4.30;;;;;;;6.02;100.00;101441.41;5056074;28;20538;-89
2024/03/19 10:04:15;;;;;;;8.95;4.47;;;;;;;6.03;100.00;101429.56;5038384;28;20436;-88
2024/03/19 10:06:43;;;;;;;9.05;4.80;;;;;;;6.25;100.00;101422.53;5050405;28;20423;-88
2024/03/19 10:09:10;;;;;;;11.02;5.10;;;;;;;6.29;100.00;101434.53;5031078;28;20426;-88
2024/03/19 10:11:38;;;;;;;9.37;5.23;;;;;;;6.23;100.00;101435.47;5049174;28;20420;-89
2024/03/19 10:14:06;;;;;;;10.45;4.90;;;;;;;6.35;100.00;101443.59;5034242;28;20428;-89
2024/03/19 10:16:33;;;;;;;12.18;5.80;;;;;;;6.44;100.00;101438.69;5053356;28;20416;-89
2024/03/19 10:19:01;;;;;;;13.00;6.07;;;;;;;6.55;100.00;101426.25;5030921;28;21647;-88
2024/03/19 10:21:30;;;;;;;10.77;5.57;;;;;;;6.59;100.00;101427.41;5023586;28;20448;-89
2024/03/19 10:23:57;;;;;;;8.95;5.50;;;;;;;6.72;100.00;101429.06;5050288;28;20778;-87
2024/03/19 10:26:25;;;;;;;9.50;4.90;;;;;;;6.94;100.00;101421.97;5028921;28;20419;-86
2024/03/19 10:28:57;;;;;;;9.50;4.80;;;;;;;6.95;100.00;101430.94;5029338;28;20449;-87
2024/03/19 10:31:25;;;;;;;9.23;5.00;;;;;;;6.83;100.00;101427.41;5005978;28;20432;-86
2024/03/19 10:33:58;;;;;;;8.90;4.40;;;;;;;6.94;100.00;101426.56;5049079;28;20424;-87
2024/03/19 10:36:32;;;;;;;9.95;5.28;;;;;;;6.90;100.00;101417.28;5032809;28;21188;-87
2024/03/19 10:39:00;;;;;;;8.50;4.70;;;;;;;6.90;100.00;101426.22;5028217;28;21029;-87
2024/03/19 10:41:30;;;;;;;12.05;5.38;;;;;;;6.92;100.00;101421.41;5029007;28;20438;-87
2024/03/19 10:44:00;;;;;;;8.07;4.95;;;;;;;6.72;100.00;101418.25;5032314;28;20419;-88
2024/03/19 10:46:30;;;;;;;10.30;5.53;;;;;;;6.61;100.00;101420.69;5029396;28;20428;-87
2024/03/19 10:48:58;;;;;;;9.25;5.00;;;;;;;6.74;100.00;101429.63;5028187;28;20427;-87
2024/03/19 10:51:26;;;;;;;10.70;5.38;;;;;;;6.81;100.00;101412.22;5031364;28;20442;-86
2024/03/19 10:53:58;;;;;;;10.10;5.40;;;;;;;7.05;100.00;101417.63;5028304;28;20431;-87
2024/03/19 10:56:26;;;;;;;9.57;5.00;;;;;;;7.30;100.00;101413.78;5048450;28;20419;-89
2024/03/19 10:58:53;;;;;;;9.05;4.85;;;;;;;7.39;100.00;101409.66;5049013;28;20408;-87
2024/03/19 11:01:24;;;;;;;10.43;5.50;;;;;;;7.51;100.00;101395.25;5058468;28;20434;-87
2024/03/19 11:03:55;;;;;;;10.18;5.47;;;;;;;7.73;100.00;101409.75;5026421;28;20424;-87
2024/03/19 11:06:25;;;;;;;10.63;5.43;;;;;;;7.86;100.00;101414.06;5043692;28;20434;-87
2024/03/19 11:08:56;;;;;;;9.77;5.00;;;;;;;7.73;100.00;101408.94;5044884;28;20937;-87
2024/03/19 11:11:31;;;;;;;11.27;5.60;;;;;;;7.90;100.00;101395.41;5026960;28;20412;-88
2024/03/19 11:14:02;;;;;;;9.63;5.25;;;;;;;7.70;100.00;101388.56;5032910;28;20428;-88
2024/03/19 11:16:38;;;;;;;11.25;5.60;;;;;;;7.73;100.00;101384.53;5025436;28;20419;-86
2024/03/19 11:19:17;;;;;;;11.75;5.75;;;;;;;7.88;100.00;101387.53;5032738;28;20428;-86
2024/03/19 11:21:45;;;;;;;10.10;5.30;;;;;;;7.88;100.00;101390.22;5044862;28;20426;-88
2024/03/19 11:24:23;;;;;;;9.48;5.50;;;;;;;7.94;100.00;101391.13;5049884;28;21119;-89
2024/03/19 11:26:54;;;;;;;9.60;5.50;;;;;;;7.99;100.00;101394.75;5049108;28;20419;-87